メインページ
METAR-TAF:

METAR-TAF

空港 :

ミネアポリス・セントポール国際空港

ミネアポリス, ミネソタ州, アメリカ合衆国

緯度: 44-52-59N, 経度: 093-13-44W, 海抜: 256m

現時点の気象観測

当レポートは59分前の06:53(UTC)に作成
南東の風 7kt
気温 21°C
湿度 73%
気圧 1014 hPa
視程: 16.1km
高度4700ftの雲はほとんどない
高度25000ftの雲はほとんどない

METAR: KMSP 190653Z 14007KT 10SM FEW047 FEW250 21/16 A2993 RMK AO2 SLP131 T02110161

時間: 02:52 (07:52 UTC)

予報

当レポートは2時間32分前の05:20(UTC)に作成
予報は19日の 06時(UTC)から 20日の 12時(UTC)まで有効
南東の風 7kt
視程: 10km
高度8000ftの雲はほとんどない
高度25000ftの千切れ雲あり
19日の 0900時(UTC)から
東/南東の風 6kt
視程: 10km
高度25000ftの千切れ雲あり
19日の 1200時(UTC)から
東/南東の風 6kt
視程: 10km
高度6000ftの千切れ雲あり
近辺でにわか雨
19日の 1400時(UTC)から
南東の風 12kt
視程: 9.7km
高度2000ftの曇り
小雨
19日の 1800時(UTC)から
南東の風 14kt、最大20ktの突風を伴う
視程: 9.7km
高度2000ftの曇り
弱いにわか雨
19日の 18時(UTC)から 19日の 21時(UTC)まで一時的に
視程: 6.4km
高度1500ftの曇り, 積乱雲.
激しい雷雨, 小雨
19日の 2100時(UTC)から
東/南東の風 13kt
視程: 10km
高度2000ftの雲は散在している
高度4000ftの曇り
確率 30%
19日の 21時(UTC)から 19日の 24時(UTC)まで
視程: 6.4km
高度1500ftの曇り
弱いにわか雨
20日の 0200時(UTC)から
東/北東の風 9kt
視程: 10km
高度1500ftの曇り

TAF: KMSP 190520Z 1906/2012 13007KT P6SM FEW080 BKN250 FM190900 12006KT P6SM BKN250 FM191200 11006KT P6SM VCSH BKN060 FM191400 13012KT 6SM -RA OVC020 FM191800 14014G20KT 6SM -SHRA OVC020 TEMPO 1918/1921 4SM -TSRA OVC015CB FM192100 11013KT P6SM SCT020 OVC040 PROB30 1921/1924 4SM -SHRA OVC015 FM200200 07009KT P6SM OVC015

4,000以上の空港の気象観測と天気予報(METAR報とTAF報)

利用可能な観測所は地図上に黄色い丸と赤い丸で示す。

丸の上にカーソルを重ねると観測所名を参照できる。

次にクリックすると気象観測と天気予報を参照できる。

マップの切り替え:黒色「×」印の緑ボタンをクリックして拡大、「-」印の緑ボタンをクリックして縮小、緑色の三角印をクリックして隣りの地図に切り替え


METAR-TAF: